createdAt,value
2023-02-11T00:02:36.273Z,21
2023-02-11T00:08:06.787Z,21
2023-02-11T00:13:37.331Z,21
2023-02-11T00:19:07.795Z,21
2023-02-11T00:24:37.312Z,21
2023-02-11T00:30:07.749Z,21
2023-02-11T00:35:37.216Z,21
2023-02-11T00:41:07.672Z,21
2023-02-11T00:46:38.233Z,21
2023-02-11T00:52:07.673Z,21
2023-02-11T00:57:38.134Z,21.1
2023-02-11T01:03:08.651Z,21
2023-02-11T01:08:38.115Z,21
2023-02-11T01:14:08.725Z,21
2023-02-11T01:19:39.245Z,21
2023-02-11T01:25:09.781Z,21
2023-02-11T01:30:40.416Z,21
2023-02-11T01:36:10.884Z,21
2023-02-11T01:41:41.465Z,21
2023-02-11T01:47:11.949Z,21
2023-02-11T01:52:42.417Z,21
2023-02-11T01:58:11.892Z,21
2023-02-11T02:03:42.450Z,21
2023-02-11T02:09:12.990Z,21
2023-02-11T02:14:43.547Z,21
2023-02-11T02:20:14.043Z,21
2023-02-11T02:25:44.644Z,21
2023-02-11T02:31:15.233Z,21
2023-02-11T02:36:45.590Z,21
2023-02-11T02:42:16.188Z,21
2023-02-11T02:47:46.630Z,21
2023-02-11T02:53:16.125Z,21
2023-02-11T02:58:47.359Z,21
2023-02-11T03:04:17.215Z,21
2023-02-11T03:09:47.807Z,21
2023-02-11T03:15:18.318Z,21
2023-02-11T03:20:48.802Z,21
2023-02-11T03:26:19.384Z,21
2023-02-11T03:31:49.919Z,21
2023-02-11T03:37:20.323Z,21
2023-02-11T03:42:50.886Z,21
2023-02-11T03:48:21.425Z,21
2023-02-11T03:53:52.101Z,21
2023-02-11T03:59:22.574Z,21
2023-02-11T04:04:53.086Z,21
2023-02-11T04:10:23.656Z,21
2023-02-11T04:15:54.594Z,21
2023-02-11T04:21:24.734Z,21
2023-02-11T04:26:55.307Z,21
2023-02-11T04:32:25.772Z,21
2023-02-11T04:39:02.549Z,21
2023-02-11T04:44:32.113Z,21
2023-02-11T04:50:02.598Z,21
2023-02-11T04:55:32.373Z,21
2023-02-11T05:01:02.877Z,21
2023-02-11T05:06:33.295Z,21
2023-02-11T05:12:04.013Z,21
2023-02-11T05:17:34.455Z,21
2023-02-11T05:23:04.923Z,21
2023-02-11T05:28:35.686Z,21
2023-02-11T05:34:05.993Z,21
2023-02-11T05:39:36.445Z,21
2023-02-11T05:45:07.036Z,20.9
2023-02-11T05:50:37.521Z,21
2023-02-11T05:56:08.089Z,21
2023-02-11T06:01:38.578Z,21
2023-02-11T06:07:09.083Z,21.1
2023-02-11T06:12:38.599Z,21.1
2023-02-11T06:18:09.091Z,21.2
2023-02-11T06:23:39.625Z,21.1
2023-02-11T06:29:10.105Z,21.1
2023-02-11T06:34:40.629Z,21
2023-02-11T06:40:11.210Z,20.8
2023-02-11T06:45:41.680Z,20.7
2023-02-11T06:51:12.312Z,20.6
2023-02-11T06:56:42.878Z,20.5
2023-02-11T07:02:13.372Z,20.4
2023-02-11T07:07:43.969Z,20.4
2023-02-11T07:13:14.535Z,20.3
2023-02-11T07:18:45.005Z,20.3
2023-02-11T07:24:15.657Z,20.3
2023-02-11T07:29:46.113Z,20.3
2023-02-11T07:35:16.590Z,20.4
2023-02-11T07:40:47.179Z,20.5
2023-02-11T07:46:17.676Z,20.5
2023-02-11T07:51:48.100Z,20.6
2023-02-11T07:57:18.713Z,20.7
2023-02-11T08:02:49.167Z,20.7
2023-02-11T08:08:19.827Z,20.7
2023-02-11T08:13:50.312Z,20.8
2023-02-11T08:19:20.757Z,20.8
2023-02-11T08:25:57.441Z,20.8
2023-02-11T08:31:28.082Z,20.8
2023-02-11T08:36:58.617Z,20.8
2023-02-11T08:42:29.093Z,20.9
2023-02-11T08:47:57.884Z,20.9
2023-02-11T08:53:27.572Z,20.9
2023-02-11T08:58:58.089Z,20.9
2023-02-11T09:06:38.801Z,20.9
2023-02-11T09:12:09.246Z,20.9
2023-02-11T09:17:39.732Z,20.9
2023-02-11T09:23:09.245Z,20.9
2023-02-11T09:28:39.725Z,20.9
2023-02-11T09:34:09.452Z,20.9
2023-02-11T09:39:39.092Z,20.9
2023-02-11T09:45:09.533Z,20.9
2023-02-11T09:50:40.012Z,20.9
2023-02-11T09:56:09.542Z,20.9
2023-02-11T10:01:39.356Z,20.9
2023-02-11T10:07:08.757Z,20.9
2023-02-11T10:12:39.269Z,20.9
2023-02-11T10:18:09.798Z,20.9
2023-02-11T10:23:40.319Z,20.9
2023-02-11T10:29:11.047Z,20.9
2023-02-11T10:34:41.522Z,20.9
2023-02-11T10:40:11.989Z,20.9
2023-02-11T10:45:42.604Z,20.9
2023-02-11T10:51:14.644Z,20.9
2023-02-11T10:56:41.839Z,20.9
2023-02-11T11:02:11.380Z,20.9
2023-02-11T11:07:41.798Z,20.9
2023-02-11T11:13:11.414Z,20.9
2023-02-11T11:18:42.012Z,20.9
2023-02-11T11:24:11.662Z,20.9
2023-02-11T11:29:42.267Z,21
2023-02-11T11:35:12.872Z,21.1
2023-02-11T11:40:43.404Z,21.1
2023-02-11T11:46:13.924Z,21.2
2023-02-11T11:51:44.791Z,21.2
2023-02-11T11:57:15.247Z,21.2
2023-02-11T12:02:45.768Z,21.2
2023-02-11T12:08:16.363Z,21.2
2023-02-11T12:13:46.813Z,21.2
2023-02-11T12:19:17.672Z,21.2
2023-02-11T12:24:48.269Z,21.2
2023-02-11T12:30:18.758Z,21.2
2023-02-11T12:35:48.257Z,21.2
2023-02-11T12:41:18.881Z,21.2
2023-02-11T12:46:48.413Z,21.2
2023-02-11T12:52:18.887Z,21.2
2023-02-11T12:57:49.521Z,21.3
2023-02-11T13:03:19.936Z,21.2
2023-02-11T13:08:50.928Z,21.2
2023-02-11T13:14:21.439Z,21.2
2023-02-11T13:19:51.901Z,21.3
2023-02-11T13:25:22.495Z,21.3
2023-02-11T13:30:53.608Z,21.3
2023-02-11T13:36:22.847Z,21.3
2023-02-11T13:41:53.432Z,21.3
2023-02-11T13:47:23.931Z,21.2
2023-02-11T13:52:53.401Z,21.3
2023-02-11T13:58:23.884Z,21.2
2023-02-11T14:03:53.522Z,21.3
2023-02-11T14:09:24.485Z,21.3
2023-02-11T14:14:55.221Z,21.2
2023-02-11T14:20:25.740Z,21.3
2023-02-11T14:25:56.205Z,21.3
2023-02-11T14:31:26.985Z,21.3
2023-02-11T14:36:55.334Z,21.2
2023-02-11T14:42:25.746Z,21.3
2023-02-11T14:47:56.248Z,21.2
2023-02-11T14:53:26.881Z,21.2
2023-02-11T14:58:56.454Z,21.3
2023-02-11T15:04:26.072Z,21.3
2023-02-11T15:09:56.579Z,21.3
2023-02-11T15:15:27.145Z,21.3
2023-02-11T15:20:57.614Z,21.2
2023-02-11T15:26:26.591Z,21.3
2023-02-11T15:31:57.162Z,21.3
2023-02-11T15:37:27.518Z,21.3
2023-02-11T15:42:58.727Z,21.3
2023-02-11T15:48:28.858Z,21.3
2023-02-11T15:53:59.288Z,21.3
2023-02-11T15:59:29.915Z,21.3
2023-02-11T16:05:00.408Z,21.3
2023-02-11T16:10:30.861Z,21.3
2023-02-11T16:16:01.737Z,21.3
2023-02-11T16:21:32.068Z,21.3
2023-02-11T16:27:02.574Z,21.3
2023-02-11T16:32:33.192Z,21.3
2023-02-11T16:38:02.775Z,21.3
2023-02-11T16:43:33.291Z,21.3
2023-02-11T16:49:03.721Z,21.3
2023-02-11T16:54:33.318Z,21.3
2023-02-11T17:00:03.793Z,21.3
2023-02-11T17:05:49.364Z,21.3
2023-02-11T17:11:04.886Z,21.3
2023-02-11T17:16:35.472Z,21.3
2023-02-11T17:22:05.884Z,21.3
2023-02-11T17:27:36.427Z,21.3
2023-02-11T17:33:06.922Z,21.2
2023-02-11T17:38:37.528Z,21.1
2023-02-11T17:44:08.077Z,21.1
2023-02-11T17:49:38.572Z,21.1
2023-02-11T17:55:09.087Z,21
2023-02-11T18:00:39.976Z,21
2023-02-11T18:06:10.104Z,21
2023-02-11T18:11:40.609Z,21
2023-02-11T18:17:11.161Z,20.9
2023-02-11T18:22:41.668Z,20.9
2023-02-11T18:30:23.370Z,20.9
2023-02-11T18:35:54.212Z,20.9
2023-02-11T18:41:23.719Z,20.9
2023-02-11T18:46:54.346Z,20.9
2023-02-11T18:52:25.065Z,20.9
2023-02-11T18:57:55.850Z,20.9
2023-02-11T19:03:26.035Z,20.9
2023-02-11T19:08:57.527Z,20.9
2023-02-11T19:14:24.053Z,20.9
2023-02-11T19:19:54.549Z,20.9
2023-02-11T19:25:24.991Z,20.9
2023-02-11T19:30:54.633Z,20.9
2023-02-11T19:36:25.128Z,20.9
2023-02-11T19:41:54.723Z,21
2023-02-11T19:47:24.472Z,21
2023-02-11T19:52:54.950Z,21
2023-02-11T19:58:25.412Z,21.1
2023-02-11T20:03:56.015Z,21.2
2023-02-11T20:09:25.632Z,21.3
2023-02-11T20:14:55.342Z,21.3
2023-02-11T20:20:25.934Z,21.4
2023-02-11T20:25:56.458Z,21.4
2023-02-11T20:31:27.004Z,21.4
2023-02-11T20:36:56.557Z,21.5
2023-02-11T20:42:27.305Z,21.5
2023-02-11T20:47:57.804Z,21.5
2023-02-11T20:53:28.294Z,21.5
2023-02-11T20:58:58.896Z,21.6
2023-02-11T21:04:27.521Z,21.6
2023-02-11T21:09:56.994Z,21.7
2023-02-11T21:15:27.503Z,21.7
2023-02-11T21:20:56.969Z,21.8
2023-02-11T21:26:27.451Z,21.8
2023-02-11T21:31:58.222Z,21.8
2023-02-11T21:37:28.674Z,21.9
2023-02-11T21:42:59.136Z,21.9
2023-02-11T21:48:29.791Z,21.9
2023-02-11T21:54:00.456Z,21.9
2023-02-11T21:59:30.932Z,22
2023-02-11T22:05:01.507Z,21.9
2023-02-11T22:10:30.907Z,21.9
2023-02-11T22:16:01.700Z,21.9
2023-02-11T22:21:32.392Z,21.8
2023-02-11T22:27:02.866Z,21.8
2023-02-11T22:32:33.337Z,21.8
2023-02-11T22:38:03.954Z,21.7
2023-02-11T22:43:33.601Z,21.7
2023-02-11T22:49:04.168Z,21.7
2023-02-11T22:54:34.656Z,21.7
2023-02-11T23:00:05.318Z,21.6
2023-02-11T23:05:35.780Z,21.6
2023-02-11T23:11:06.682Z,21.6
2023-02-11T23:16:37.242Z,21.6
2023-02-11T23:22:07.615Z,21.6
2023-02-11T23:27:37.128Z,21.6
2023-02-11T23:33:07.709Z,21.5
2023-02-11T23:38:38.463Z,21.5
2023-02-11T23:44:08.103Z,21.5
2023-02-11T23:49:37.702Z,21.5
2023-02-11T23:55:08.306Z,21.5
